createdAt,value
2023-03-11T00:00:41.885Z,60.63
2023-03-11T00:03:24.849Z,60.98
2023-03-11T00:05:54.250Z,61.00
2023-03-11T00:08:24.663Z,61.86
2023-03-11T00:10:56.396Z,62.54
2023-03-11T00:13:23.953Z,62.87
2023-03-11T00:15:56.919Z,64.08
2023-03-11T00:18:31.314Z,64.30
2023-03-11T00:21:01.201Z,65.51
2023-03-11T00:23:29.126Z,67.85
2023-03-11T00:25:56.947Z,68.35
2023-03-11T00:28:26.897Z,69.13
2023-03-11T00:30:55.306Z,70.29
2023-03-11T00:33:23.520Z,71.05
2023-03-11T00:35:51.742Z,70.80
2023-03-11T00:38:19.628Z,71.87
2023-03-11T00:40:49.396Z,71.44
2023-03-11T00:43:17.357Z,71.31
2023-03-11T00:54:04.851Z,71.35
2023-03-11T00:56:32.708Z,70.37
2023-03-11T00:59:00.160Z,71.21
2023-03-11T01:01:27.740Z,70.68
2023-03-11T01:03:55.045Z,71.21
2023-03-11T01:06:23.389Z,70.92
2023-03-11T01:08:50.722Z,70.82
2023-03-11T01:11:18.270Z,70.42
2023-03-11T01:13:45.191Z,70.07
2023-03-11T01:16:12.542Z,69.93
2023-03-11T01:18:39.459Z,70.48
2023-03-11T01:21:07.075Z,69.18
2023-03-11T01:23:33.994Z,68.05
2023-03-11T01:26:01.176Z,68.34
2023-03-11T01:28:28.108Z,68.28
2023-03-11T01:30:55.355Z,67.49
2023-03-11T01:33:22.380Z,68.02
2023-03-11T01:35:49.632Z,67.79
2023-03-11T01:38:17.353Z,66.90
2023-03-11T01:40:51.596Z,65.91
2023-03-11T01:43:38.919Z,65.96
2023-03-11T01:46:18.074Z,65.25
2023-03-11T01:48:49.545Z,64.34
2023-03-11T01:51:30.512Z,64.87
2023-03-11T01:54:04.109Z,63.86
2023-03-11T01:56:32.939Z,62.67
2023-03-11T01:59:00.333Z,63.53
2023-03-11T02:01:27.790Z,62.81
2023-03-11T02:03:56.682Z,62.03
2023-03-11T02:06:25.759Z,61.73
2023-03-11T02:08:54.356Z,61.86
2023-03-11T02:11:30.697Z,62.56
2023-03-11T02:14:04.730Z,62.82
2023-03-11T02:16:33.175Z,63.22
2023-03-11T02:19:23.045Z,62.90
2023-03-11T02:21:50.354Z,62.70
2023-03-11T02:24:35.828Z,63.67
2023-03-11T02:27:11.083Z,62.48
2023-03-11T02:29:39.158Z,62.28
2023-03-11T02:32:10.202Z,62.39
2023-03-11T02:34:39.707Z,63.26
2023-03-11T02:37:10.996Z,64.11
2023-03-11T02:39:48.295Z,63.68
2023-03-11T02:42:32.431Z,63.79
2023-03-11T02:45:12.557Z,64.11
2023-03-11T02:47:41.440Z,63.69
2023-03-11T02:50:13.713Z,64.09
2023-03-11T02:52:41.562Z,63.64
2023-03-11T02:55:11.965Z,64.42
2023-03-11T02:57:39.193Z,63.28
2023-03-11T03:00:14.291Z,63.13
2023-03-11T03:02:43.807Z,63.97
2023-03-11T03:05:11.953Z,62.96
2023-03-11T03:07:39.287Z,62.63
2023-03-11T03:10:07.693Z,62.73
2023-03-11T03:12:37.699Z,62.55
2023-03-11T03:15:05.375Z,62.52
2023-03-11T03:17:32.901Z,62.42
2023-03-11T03:19:59.879Z,62.31
2023-03-11T03:22:29.436Z,61.99
2023-03-11T03:24:56.397Z,62.33
2023-03-11T03:27:23.669Z,61.29
2023-03-11T03:29:50.601Z,61.40
2023-03-11T03:32:17.758Z,61.02
2023-03-11T03:34:44.741Z,60.54
2023-03-11T03:37:12.090Z,60.23
2023-03-11T03:39:39.212Z,60.03
2023-03-11T03:42:06.922Z,60.16
2023-03-11T03:44:33.934Z,59.61
2023-03-11T03:47:01.424Z,59.69
2023-03-11T03:49:28.351Z,59.26
2023-03-11T03:51:55.526Z,59.35
2023-03-11T03:54:22.653Z,58.37
2023-03-11T03:56:49.770Z,59.09
2023-03-11T03:59:16.708Z,59.49
2023-03-11T04:01:43.837Z,58.57
2023-03-11T04:04:10.703Z,59.37
2023-03-11T04:06:38.055Z,59.04
2023-03-11T04:09:05.003Z,58.68
2023-03-11T04:11:33.294Z,59.11
2023-03-11T04:14:00.296Z,58.99
2023-03-11T04:16:27.604Z,58.64
2023-03-11T04:18:54.777Z,58.61
2023-03-11T04:21:22.699Z,58.98
2023-03-11T04:23:50.728Z,58.62
2023-03-11T04:26:18.016Z,58.85
2023-03-11T04:28:44.861Z,58.83
2023-03-11T04:31:12.635Z,58.98
2023-03-11T04:33:39.713Z,58.97
2023-03-11T04:36:09.019Z,58.67
2023-03-11T04:38:36.320Z,58.59
2023-03-11T04:41:06.293Z,58.36
2023-03-11T04:43:34.289Z,58.48
2023-03-11T04:46:01.770Z,58.58
2023-03-11T04:48:28.812Z,58.40
2023-03-11T04:50:56.155Z,58.45
2023-03-11T04:53:24.106Z,58.43
2023-03-11T04:55:52.430Z,58.17
2023-03-11T04:58:20.290Z,58.31
2023-03-11T05:00:47.506Z,58.50
2023-03-11T05:03:15.361Z,58.71
2023-03-11T05:05:42.754Z,58.66
2023-03-11T05:08:09.738Z,59.26
2023-03-11T05:10:37.472Z,59.28
2023-03-11T05:13:04.599Z,58.87
2023-03-11T05:15:31.830Z,59.14
2023-03-11T05:17:59.080Z,59.33
2023-03-11T05:20:26.413Z,59.31
2023-03-11T05:22:53.539Z,59.54
2023-03-11T05:25:20.677Z,59.10
2023-03-11T05:27:47.637Z,59.35
2023-03-11T05:30:15.441Z,59.88
2023-03-11T05:32:42.414Z,59.28
2023-03-11T05:35:10.019Z,59.45
2023-03-11T05:37:39.202Z,59.63
2023-03-11T05:40:11.075Z,59.57
2023-03-11T05:42:41.307Z,59.86
2023-03-11T05:45:10.060Z,59.58
2023-03-11T05:47:37.058Z,59.74
2023-03-11T05:50:06.055Z,59.88
2023-03-11T05:52:33.939Z,59.47
2023-03-11T05:55:01.336Z,59.14
2023-03-11T05:57:28.466Z,58.90
2023-03-11T05:59:55.788Z,58.99
2023-03-11T06:02:23.468Z,58.61
2023-03-11T06:04:51.262Z,58.86
2023-03-11T06:07:18.311Z,58.30
2023-03-11T06:09:45.665Z,58.92
2023-03-11T06:12:12.980Z,59.07
2023-03-11T06:14:40.294Z,58.85
2023-03-11T06:17:07.555Z,59.13
2023-03-11T06:19:34.828Z,58.96
2023-03-11T06:22:03.049Z,59.26
2023-03-11T06:24:30.512Z,59.49
2023-03-11T06:26:57.543Z,59.46
2023-03-11T06:29:26.712Z,59.52
2023-03-11T06:31:53.870Z,59.47
2023-03-11T06:34:21.921Z,59.77
2023-03-11T06:36:48.905Z,59.56
2023-03-11T06:39:16.161Z,59.63
2023-03-11T06:41:43.130Z,59.57
2023-03-11T06:44:11.865Z,58.78
2023-03-11T06:46:38.890Z,58.78
2023-03-11T06:49:06.143Z,58.63
2023-03-11T06:51:33.802Z,58.21
2023-03-11T06:54:01.172Z,58.44
2023-03-11T06:56:46.092Z,58.23
2023-03-11T06:59:15.555Z,57.60
2023-03-11T07:01:42.530Z,57.56
2023-03-11T07:04:11.161Z,57.34
2023-03-11T07:06:38.199Z,57.06
2023-03-11T07:09:05.522Z,56.62
2023-03-11T07:11:33.162Z,56.29
2023-03-11T07:14:00.702Z,55.78
2023-03-11T07:16:31.214Z,56.00
2023-03-11T07:19:03.174Z,56.38
2023-03-11T07:21:31.907Z,55.49
2023-03-11T07:24:05.389Z,55.65
2023-03-11T07:26:35.831Z,55.72
2023-03-11T07:29:03.682Z,55.21
2023-03-11T07:31:34.614Z,55.51
2023-03-11T07:34:06.406Z,55.38
2023-03-11T07:36:33.362Z,55.78
2023-03-11T07:39:04.750Z,56.12
2023-03-11T07:41:34.748Z,56.07
2023-03-11T07:44:03.884Z,55.90
2023-03-11T07:46:32.303Z,55.33
2023-03-11T07:49:01.832Z,55.48
2023-03-11T07:51:32.617Z,56.08
2023-03-11T07:54:01.738Z,56.09
2023-03-11T07:56:32.948Z,55.64
2023-03-11T07:59:02.393Z,56.15
2023-03-11T08:01:47.196Z,56.65
2023-03-11T08:04:17.203Z,56.67
2023-03-11T08:06:47.573Z,56.63
2023-03-11T08:09:15.444Z,56.68
2023-03-11T08:11:43.135Z,56.62
2023-03-11T08:14:10.782Z,56.62
2023-03-11T08:16:41.273Z,56.72
2023-03-11T08:19:12.972Z,56.14
2023-03-11T08:21:40.204Z,56.03
2023-03-11T08:24:07.861Z,56.78
2023-03-11T08:26:34.928Z,56.85
2023-03-11T08:29:02.204Z,56.29
2023-03-11T08:31:32.995Z,56.37
2023-03-11T08:34:07.610Z,56.28
2023-03-11T08:36:35.237Z,56.50
2023-03-11T08:39:03.722Z,56.65
2023-03-11T08:41:31.324Z,56.11
2023-03-11T08:43:58.767Z,56.23
2023-03-11T08:46:28.892Z,55.95
2023-03-11T08:49:00.935Z,56.11
2023-03-11T08:51:30.556Z,55.98
2023-03-11T08:53:58.732Z,56.14
2023-03-11T08:56:26.389Z,56.41
2023-03-11T08:58:53.964Z,56.38
2023-03-11T09:01:21.194Z,56.45
2023-03-11T09:03:48.909Z,55.75
2023-03-11T09:06:17.488Z,55.62
2023-03-11T09:08:46.706Z,56.26
2023-03-11T09:11:16.111Z,55.28
2023-03-11T09:13:51.723Z,55.74
2023-03-11T09:16:23.287Z,55.21
2023-03-11T09:18:50.924Z,55.15
2023-03-11T09:21:18.514Z,55.00
2023-03-11T09:23:46.365Z,55.01
2023-03-11T09:26:14.722Z,54.14
2023-03-11T09:28:42.990Z,54.35
2023-03-11T09:31:10.261Z,54.14
2023-03-11T09:33:42.457Z,54.32
2023-03-11T09:36:19.608Z,53.95
2023-03-11T09:38:47.731Z,54.43
2023-03-11T09:41:32.584Z,54.52
2023-03-11T09:44:39.551Z,55.78
2023-03-11T09:47:46.933Z,56.14
2023-03-11T09:50:58.312Z,56.60
2023-03-11T09:53:42.459Z,56.80
2023-03-11T09:56:22.124Z,56.34
2023-03-11T09:58:55.729Z,55.73
2023-03-11T10:01:44.647Z,54.83
2023-03-11T10:04:20.333Z,54.16
2023-03-11T10:06:48.174Z,54.29
2023-03-11T10:09:41.027Z,54.40
2023-03-11T10:12:37.091Z,53.92
2023-03-11T10:15:23.588Z,54.21
2023-03-11T10:18:19.839Z,53.07
2023-03-11T10:20:58.058Z,52.72
2023-03-11T10:23:48.850Z,52.76
2023-03-11T10:26:31.488Z,52.28
2023-03-11T10:29:23.810Z,52.12
2023-03-11T10:32:06.495Z,52.93
2023-03-11T10:34:42.758Z,52.93
2023-03-11T10:37:49.232Z,53.78
2023-03-11T10:40:41.901Z,53.86
2023-03-11T10:43:21.075Z,53.58
2023-03-11T10:45:51.795Z,52.99
2023-03-11T10:48:22.012Z,51.98
2023-03-11T10:51:01.884Z,51.03
2023-03-11T10:53:30.761Z,50.04
2023-03-11T10:55:59.699Z,50.49
2023-03-11T10:58:31.433Z,50.54
2023-03-11T11:01:25.367Z,50.95
2023-03-11T11:03:57.026Z,50.65
2023-03-11T11:06:45.114Z,50.34
2023-03-11T11:09:26.359Z,50.22
2023-03-11T11:12:17.671Z,51.25
2023-03-11T11:14:51.930Z,50.94
2023-03-11T11:17:29.138Z,50.49
2023-03-11T11:19:59.243Z,50.99
2023-03-11T11:22:26.851Z,51.19
2023-03-11T11:24:56.630Z,51.08
2023-03-11T11:27:29.329Z,51.32
2023-03-11T11:30:23.550Z,51.42
2023-03-11T11:32:53.825Z,51.98
2023-03-11T11:35:24.616Z,52.48
2023-03-11T11:37:59.957Z,51.00
2023-03-11T11:40:34.840Z,51.71
2023-03-11T11:43:25.047Z,51.51
2023-03-11T11:46:02.779Z,51.73
2023-03-11T11:48:54.157Z,51.03
2023-03-11T11:51:36.685Z,50.50
2023-03-11T11:54:18.883Z,50.37
2023-03-11T11:56:46.670Z,50.18
2023-03-11T11:59:20.141Z,49.94
2023-03-11T12:02:24.774Z,50.58
2023-03-11T12:05:06.274Z,51.20
2023-03-11T12:08:00.132Z,52.11
2023-03-11T12:10:45.321Z,52.24
2023-03-11T12:13:18.155Z,52.20
2023-03-11T12:16:00.256Z,51.55
2023-03-11T12:19:04.649Z,51.50
2023-03-11T12:21:59.438Z,52.04
2023-03-11T12:25:04.890Z,52.53
2023-03-11T12:27:44.806Z,53.02
2023-03-11T12:30:27.240Z,52.70
2023-03-11T12:33:25.242Z,53.75
2023-03-11T12:35:58.820Z,55.31
2023-03-11T12:38:38.858Z,55.76
2023-03-11T12:41:16.248Z,56.04
2023-03-11T12:43:43.043Z,55.12
2023-03-11T12:46:18.110Z,54.05
2023-03-11T12:48:50.464Z,54.65
2023-03-11T12:51:26.982Z,53.11
2023-03-11T12:53:55.793Z,52.92
2023-03-11T12:56:44.830Z,52.55
2023-03-11T13:00:19.872Z,52.65
2023-03-11T13:03:12.383Z,52.05
2023-03-11T13:06:25.855Z,52.52
2023-03-11T13:08:59.047Z,52.72
2023-03-11T13:11:31.721Z,52.10
2023-03-11T13:14:16.342Z,51.88
2023-03-11T13:16:45.532Z,52.42
2023-03-11T13:19:32.143Z,52.38
2023-03-11T13:22:01.995Z,51.96
2023-03-11T13:24:29.791Z,51.48
2023-03-11T13:26:59.899Z,51.40
2023-03-11T13:29:55.344Z,51.30
2023-03-11T13:32:50.314Z,51.25
2023-03-11T13:35:51.720Z,50.58
2023-03-11T13:39:11.334Z,50.59
2023-03-11T13:41:47.595Z,49.68
2023-03-11T13:44:29.404Z,49.79
2023-03-11T13:47:23.742Z,50.12
2023-03-11T13:49:53.448Z,51.04
2023-03-11T13:52:55.434Z,50.49
2023-03-11T13:55:40.485Z,50.54
2023-03-11T13:58:19.335Z,50.44
2023-03-11T14:00:58.440Z,50.87
2023-03-11T14:03:40.567Z,51.23
2023-03-11T14:06:18.849Z,50.95
2023-03-11T14:08:55.889Z,50.19
2023-03-11T14:11:29.552Z,50.65
2023-03-11T14:13:56.825Z,50.73
2023-03-11T14:16:35.581Z,50.88
2023-03-11T14:19:15.416Z,50.83
2023-03-11T14:21:51.592Z,50.44
2023-03-11T14:24:25.819Z,49.95
2023-03-11T14:26:55.915Z,50.29
2023-03-11T14:29:38.996Z,49.02
2023-03-11T14:32:27.640Z,49.50
2023-03-11T14:34:55.942Z,49.17
2023-03-11T14:37:38.483Z,49.71
2023-03-11T14:40:32.127Z,49.45
2023-03-11T14:43:06.795Z,50.17
2023-03-11T14:45:39.079Z,50.22
2023-03-11T14:48:38.330Z,50.99
2023-03-11T14:51:18.193Z,51.62
2023-03-11T14:54:24.490Z,51.77
2023-03-11T14:57:43.389Z,51.88
2023-03-11T15:00:26.931Z,52.10
2023-03-11T15:03:12.753Z,52.48
2023-03-11T15:05:58.024Z,52.12
2023-03-11T15:08:31.082Z,52.75
2023-03-11T15:11:13.536Z,52.89
2023-03-11T15:13:46.520Z,52.47
2023-03-11T15:16:32.913Z,52.67
2023-03-11T15:19:30.205Z,52.10
2023-03-11T15:22:07.341Z,52.23
2023-03-11T15:24:35.258Z,51.62
2023-03-11T15:27:28.618Z,51.50
2023-03-11T15:29:57.217Z,50.85
2023-03-11T15:32:45.728Z,50.08
2023-03-11T15:35:20.490Z,49.61
2023-03-11T15:37:51.805Z,49.02
2023-03-11T15:40:19.129Z,49.80
2023-03-11T15:42:48.128Z,49.29
2023-03-11T15:45:20.800Z,49.24
2023-03-11T15:47:50.775Z,50.20
2023-03-11T15:50:40.136Z,48.48
2023-03-11T15:53:10.184Z,48.37
2023-03-11T15:55:37.471Z,48.31
2023-03-11T15:58:09.195Z,48.12
2023-03-11T16:00:37.583Z,47.80
2023-03-11T16:03:05.445Z,47.78
2023-03-11T16:05:32.776Z,47.61
2023-03-11T16:07:59.668Z,47.84
2023-03-11T16:10:28.810Z,47.07
2023-03-11T16:12:56.280Z,46.77
2023-03-11T16:15:31.505Z,46.72
2023-03-11T16:18:00.389Z,46.33
2023-03-11T16:20:33.965Z,46.18
2023-03-11T16:23:02.444Z,46.24
2023-03-11T16:25:36.267Z,46.44
2023-03-11T16:28:04.282Z,46.25
2023-03-11T16:30:35.061Z,46.50
2023-03-11T16:33:04.475Z,46.29
2023-03-11T16:35:33.390Z,46.41
2023-03-11T16:38:00.757Z,46.02
2023-03-11T16:40:29.565Z,46.16
2023-03-11T16:43:04.995Z,46.66
2023-03-11T16:45:32.942Z,46.92
2023-03-11T16:48:00.336Z,47.37
2023-03-11T16:50:28.530Z,47.30
2023-03-11T16:52:57.377Z,47.54
2023-03-11T16:55:27.122Z,47.89
2023-03-11T16:57:56.012Z,48.39
2023-03-11T17:00:25.083Z,48.26
2023-03-11T17:02:52.809Z,48.69
2023-03-11T17:05:20.502Z,48.49
2023-03-11T17:07:47.804Z,48.95
2023-03-11T17:10:15.023Z,48.65
2023-03-11T17:12:42.000Z,48.85
2023-03-11T17:15:09.654Z,49.26
2023-03-11T17:17:36.745Z,49.33
2023-03-11T17:20:06.333Z,49.15
2023-03-11T17:22:33.489Z,49.44
2023-03-11T17:25:00.861Z,49.54
2023-03-11T17:27:32.331Z,49.48
2023-03-11T17:30:05.662Z,49.84
2023-03-11T17:32:33.472Z,49.97
2023-03-11T17:35:00.812Z,49.61
2023-03-11T17:37:27.961Z,49.83
2023-03-11T17:39:55.264Z,49.69
2023-03-11T17:42:23.218Z,50.10
2023-03-11T17:44:52.272Z,51.06
2023-03-11T17:47:20.486Z,50.91
2023-03-11T17:49:49.324Z,51.30
2023-03-11T17:52:16.324Z,51.57
2023-03-11T17:54:44.185Z,51.30
2023-03-11T17:57:11.424Z,51.54
2023-03-11T17:59:38.566Z,51.43
2023-03-11T18:02:05.873Z,51.20
2023-03-11T18:04:33.268Z,51.22
2023-03-11T18:07:00.324Z,51.22
2023-03-11T18:09:27.975Z,51.25
2023-03-11T18:11:55.178Z,51.13
2023-03-11T18:14:22.443Z,51.70
2023-03-11T18:16:49.462Z,51.14
2023-03-11T18:19:16.825Z,51.40
2023-03-11T18:21:44.600Z,51.34
2023-03-11T18:24:11.849Z,51.34
2023-03-11T18:26:38.867Z,50.89
2023-03-11T18:29:06.201Z,51.21
2023-03-11T18:31:33.271Z,51.48
2023-03-11T18:34:04.768Z,51.58
2023-03-11T18:36:37.670Z,51.59
2023-03-11T18:39:06.411Z,51.26
2023-03-11T18:41:35.809Z,51.86
2023-03-11T18:44:04.236Z,51.18
2023-03-11T18:46:32.506Z,51.88
2023-03-11T18:49:03.525Z,51.74
2023-03-11T18:51:32.468Z,51.55
2023-03-11T18:54:00.692Z,51.87
2023-03-11T18:56:30.981Z,51.75
2023-03-11T18:59:00.178Z,51.58
2023-03-11T19:01:27.878Z,51.93
2023-03-11T19:03:59.533Z,51.74
2023-03-11T19:06:29.069Z,51.80
2023-03-11T19:08:57.957Z,51.89
2023-03-11T19:11:26.582Z,52.07
2023-03-11T19:13:54.369Z,52.32
2023-03-11T19:16:26.020Z,52.28
2023-03-11T19:18:55.276Z,52.20
2023-03-11T19:21:23.275Z,52.69
2023-03-11T19:23:52.931Z,52.83
2023-03-11T19:26:21.024Z,52.66
2023-03-11T19:28:51.231Z,52.65
2023-03-11T19:31:18.220Z,52.96
2023-03-11T19:33:47.211Z,53.16
2023-03-11T19:36:14.362Z,53.21
2023-03-11T19:38:41.797Z,52.97
2023-03-11T19:41:19.957Z,53.47
2023-03-11T19:43:48.547Z,53.14
2023-03-11T19:46:20.421Z,53.28
2023-03-11T19:48:48.130Z,53.27
2023-03-11T19:51:17.314Z,53.49
2023-03-11T19:53:46.059Z,53.68
2023-03-11T19:56:13.496Z,53.65
2023-03-11T19:58:43.194Z,53.75
2023-03-11T20:01:21.241Z,53.94
2023-03-11T20:03:48.459Z,53.97
2023-03-11T20:06:18.409Z,54.20
2023-03-11T20:08:46.054Z,53.74
2023-03-11T20:11:13.221Z,54.03
2023-03-11T20:13:43.836Z,53.82
2023-03-11T20:16:18.510Z,54.33
2023-03-11T20:18:50.863Z,54.07
2023-03-11T20:21:18.842Z,54.04
2023-03-11T20:23:46.101Z,53.86
2023-03-11T20:26:17.390Z,53.62
2023-03-11T20:28:44.799Z,53.56
2023-03-11T20:31:19.789Z,53.39
2023-03-11T20:33:49.732Z,53.63
2023-03-11T20:36:21.697Z,53.03
2023-03-11T20:38:51.922Z,53.17
2023-03-11T20:41:20.028Z,53.06
2023-03-11T20:43:47.471Z,53.29
2023-03-11T20:46:15.045Z,53.53
2023-03-11T20:48:42.585Z,53.89
2023-03-11T20:51:16.186Z,53.52
2023-03-11T20:53:43.498Z,53.56
2023-03-11T20:56:18.753Z,54.08
2023-03-11T20:58:48.816Z,54.04
2023-03-11T21:01:20.909Z,53.94
2023-03-11T21:03:49.414Z,54.36
2023-03-11T21:06:22.933Z,53.97
2023-03-11T21:08:54.168Z,54.20
2023-03-11T21:11:23.751Z,54.36
2023-03-11T21:13:52.022Z,54.16
2023-03-11T21:16:19.963Z,54.64
2023-03-11T21:18:49.544Z,54.60
2023-03-11T21:21:18.706Z,54.65
2023-03-11T21:23:48.842Z,54.39
2023-03-11T21:26:17.620Z,54.90
2023-03-11T21:28:46.756Z,54.91
2023-03-11T21:31:26.007Z,55.41
2023-03-11T21:33:58.306Z,55.49
2023-03-11T21:36:25.872Z,55.63
2023-03-11T21:38:53.277Z,55.05
2023-03-11T21:41:27.851Z,55.03
2023-03-11T21:43:57.408Z,55.09
2023-03-11T21:46:31.062Z,55.13
2023-03-11T21:49:00.984Z,55.22
2023-03-11T21:51:28.739Z,55.46
2023-03-11T21:53:56.732Z,55.26
2023-03-11T21:56:24.031Z,55.29
2023-03-11T21:58:53.837Z,55.25
2023-03-11T22:01:21.172Z,55.34
2023-03-11T22:03:48.788Z,55.07
2023-03-11T22:06:16.072Z,55.16
2023-03-11T22:08:43.450Z,55.16
2023-03-11T22:11:18.521Z,54.86
2023-03-11T22:13:49.210Z,54.76
2023-03-11T22:16:17.200Z,54.98
2023-03-11T22:18:45.338Z,54.92
2023-03-11T22:21:16.738Z,54.20
2023-03-11T22:23:45.241Z,54.74
2023-03-11T22:26:13.857Z,54.67
2023-03-11T22:28:41.085Z,54.43
2023-03-11T22:31:14.504Z,54.89
2023-03-11T22:33:41.800Z,54.89
2023-03-11T22:36:10.170Z,54.68
2023-03-11T22:38:40.041Z,54.78
2023-03-11T22:41:09.110Z,54.60
2023-03-11T22:43:38.172Z,54.27
2023-03-11T22:46:06.297Z,54.61
2023-03-11T22:48:34.936Z,54.18
2023-03-11T22:51:02.379Z,54.56
2023-03-11T22:53:30.752Z,54.74
2023-03-11T22:55:58.216Z,55.10
2023-03-11T22:58:25.735Z,55.02
2023-03-11T23:00:52.914Z,54.72
2023-03-11T23:03:20.280Z,55.21
2023-03-11T23:05:47.547Z,55.13
2023-03-11T23:08:16.739Z,55.28
2023-03-11T23:10:47.975Z,55.87
2023-03-11T23:13:16.217Z,56.20
2023-03-11T23:15:46.564Z,55.87
2023-03-11T23:18:15.943Z,55.97
2023-03-11T23:20:44.397Z,56.43
2023-03-11T23:23:13.332Z,56.47
2023-03-11T23:25:41.591Z,56.14
2023-03-11T23:28:09.448Z,56.05
2023-03-11T23:30:36.884Z,56.03
2023-03-11T23:33:04.055Z,56.14
2023-03-11T23:35:32.810Z,56.04
2023-03-11T23:38:00.798Z,56.14
2023-03-11T23:40:28.109Z,55.96
2023-03-11T23:42:55.255Z,55.95
2023-03-11T23:45:22.563Z,56.03
2023-03-11T23:47:49.777Z,56.09
2023-03-11T23:50:17.236Z,56.02
2023-03-11T23:52:44.417Z,55.98
2023-03-11T23:55:12.112Z,56.11
2023-03-11T23:57:39.235Z,56.17
